sensor_id;sensor_type;location;lat;lon;timestamp;P1;durP1;ratioP1;P2;durP2;ratioP2
80131;SDS011;69442;51.442;10.564;2023-04-24T00:00:45;5.40;;;1.00;;
80131;SDS011;69442;51.442;10.564;2023-04-24T00:03:11;2.70;;;0.73;;
80131;SDS011;69442;51.442;10.564;2023-04-24T00:05:37;1.08;;;0.70;;
80131;SDS011;69442;51.442;10.564;2023-04-24T00:08:05;1.33;;;0.90;;
80131;SDS011;69442;51.442;10.564;2023-04-24T00:10:31;2.38;;;0.85;;
80131;SDS011;69442;51.442;10.564;2023-04-24T00:12:56;0.90;;;0.80;;
80131;SDS011;69442;51.442;10.564;2023-04-24T00:15:22;1.42;;;0.77;;
80131;SDS011;69442;51.442;10.564;2023-04-24T00:17:47;1.85;;;0.70;;
80131;SDS011;69442;51.442;10.564;2023-04-24T00:20:12;0.68;;;0.68;;
80131;SDS011;69442;51.442;10.564;2023-04-24T00:22:39;1.65;;;0.77;;
80131;SDS011;69442;51.442;10.564;2023-04-24T00:25:05;0.70;;;0.70;;
80131;SDS011;69442;51.442;10.564;2023-04-24T00:27:31;0.88;;;0.82;;
80131;SDS011;69442;51.442;10.564;2023-04-24T00:29:57;1.70;;;0.98;;
80131;SDS011;69442;51.442;10.564;2023-04-24T00:32:22;1.67;;;1.00;;
80131;SDS011;69442;51.442;10.564;2023-04-24T00:34:47;1.17;;;0.82;;
80131;SDS011;69442;51.442;10.564;2023-04-24T00:37:13;1.65;;;0.85;;
80131;SDS011;69442;51.442;10.564;2023-04-24T00:39:38;1.13;;;0.80;;
80131;SDS011;69442;51.442;10.564;2023-04-24T00:42:04;0.65;;;0.63;;
80131;SDS011;69442;51.442;10.564;2023-04-24T00:44:31;0.98;;;0.70;;
80131;SDS011;69442;51.442;10.564;2023-04-24T00:46:58;0.90;;;0.80;;
80131;SDS011;69442;51.442;10.564;2023-04-24T00:49:24;1.25;;;0.77;;
80131;SDS011;69442;51.442;10.564;2023-04-24T00:51:50;1.23;;;1.00;;
80131;SDS011;69442;51.442;10.564;2023-04-24T00:54:16;1.27;;;1.17;;
80131;SDS011;69442;51.442;10.564;2023-04-24T00:56:42;0.80;;;0.70;;
80131;SDS011;69442;51.442;10.564;2023-04-24T00:59:09;1.90;;;0.90;;
80131;SDS011;69442;51.442;10.564;2023-04-24T01:01:35;0.75;;;0.70;;
80131;SDS011;69442;51.442;10.564;2023-04-24T01:04:01;1.40;;;0.50;;
80131;SDS011;69442;51.442;10.564;2023-04-24T01:06:27;1.92;;;0.85;;
80131;SDS011;69442;51.442;10.564;2023-04-24T01:08:53;2.83;;;0.75;;
80131;SDS011;69442;51.442;10.564;2023-04-24T01:11:20;1.35;;;0.70;;
80131;SDS011;69442;51.442;10.564;2023-04-24T01:13:47;1.20;;;0.73;;
80131;SDS011;69442;51.442;10.564;2023-04-24T01:16:13;0.70;;;0.70;;
80131;SDS011;69442;51.442;10.564;2023-04-24T01:18:40;0.73;;;0.60;;
80131;SDS011;69442;51.442;10.564;2023-04-24T01:21:06;1.65;;;0.68;;
80131;SDS011;69442;51.442;10.564;2023-04-24T01:23:34;0.90;;;0.80;;
80131;SDS011;69442;51.442;10.564;2023-04-24T01:25:59;0.90;;;0.80;;
80131;SDS011;69442;51.442;10.564;2023-04-24T01:28:25;0.70;;;0.70;;
80131;SDS011;69442;51.442;10.564;2023-04-24T01:30:51;1.20;;;0.75;;
80131;SDS011;69442;51.442;10.564;2023-04-24T01:33:17;1.35;;;0.70;;
80131;SDS011;69442;51.442;10.564;2023-04-24T01:35:43;1.00;;;0.80;;
80131;SDS011;69442;51.442;10.564;2023-04-24T01:38:08;1.13;;;0.90;;
80131;SDS011;69442;51.442;10.564;2023-04-24T01:40:34;0.65;;;0.60;;
80131;SDS011;69442;51.442;10.564;2023-04-24T01:43:00;0.85;;;0.70;;
80131;SDS011;69442;51.442;10.564;2023-04-24T01:45:25;2.00;;;0.80;;
80131;SDS011;69442;51.442;10.564;2023-04-24T01:47:51;2.15;;;0.82;;
80131;SDS011;69442;51.442;10.564;2023-04-24T01:50:17;1.45;;;0.70;;
80131;SDS011;69442;51.442;10.564;2023-04-24T01:52:43;1.67;;;0.85;;
80131;SDS011;69442;51.442;10.564;2023-04-24T01:55:08;1.00;;;0.75;;
80131;SDS011;69442;51.442;10.564;2023-04-24T01:57:34;0.90;;;0.70;;
80131;SDS011;69442;51.442;10.564;2023-04-24T02:00:00;2.28;;;0.88;;
80131;SDS011;69442;51.442;10.564;2023-04-24T02:02:25;1.08;;;0.70;;
80131;SDS011;69442;51.442;10.564;2023-04-24T02:04:54;1.20;;;0.77;;
80131;SDS011;69442;51.442;10.564;2023-04-24T02:07:20;1.58;;;0.85;;
80131;SDS011;69442;51.442;10.564;2023-04-24T02:09:45;1.10;;;0.70;;
80131;SDS011;69442;51.442;10.564;2023-04-24T02:12:11;0.77;;;0.60;;
80131;SDS011;69442;51.442;10.564;2023-04-24T02:14:36;1.20;;;0.70;;
80131;SDS011;69442;51.442;10.564;2023-04-24T02:17:01;0.70;;;0.55;;
80131;SDS011;69442;51.442;10.564;2023-04-24T02:19:27;0.75;;;0.70;;
80131;SDS011;69442;51.442;10.564;2023-04-24T02:21:52;2.08;;;0.77;;
80131;SDS011;69442;51.442;10.564;2023-04-24T02:24:18;1.08;;;0.80;;
80131;SDS011;69442;51.442;10.564;2023-04-24T02:26:43;0.75;;;0.60;;
80131;SDS011;69442;51.442;10.564;2023-04-24T02:29:08;1.33;;;0.77;;
80131;SDS011;69442;51.442;10.564;2023-04-24T02:31:34;1.35;;;0.80;;
80131;SDS011;69442;51.442;10.564;2023-04-24T02:33:59;0.90;;;0.60;;
80131;SDS011;69442;51.442;10.564;2023-04-24T02:36:24;0.98;;;0.70;;
80131;SDS011;69442;51.442;10.564;2023-04-24T02:38:50;0.60;;;0.60;;
80131;SDS011;69442;51.442;10.564;2023-04-24T02:41:15;1.98;;;0.73;;
80131;SDS011;69442;51.442;10.564;2023-04-24T02:43:41;0.95;;;0.70;;
80131;SDS011;69442;51.442;10.564;2023-04-24T02:46:06;1.10;;;0.70;;
80131;SDS011;69442;51.442;10.564;2023-04-24T02:48:31;1.08;;;0.80;;
80131;SDS011;69442;51.442;10.564;2023-04-24T02:50:58;3.17;;;0.90;;
80131;SDS011;69442;51.442;10.564;2023-04-24T02:53:23;2.08;;;1.10;;
80131;SDS011;69442;51.442;10.564;2023-04-24T02:55:48;1.42;;;0.95;;
80131;SDS011;69442;51.442;10.564;2023-04-24T02:58:14;0.88;;;0.88;;
80131;SDS011;69442;51.442;10.564;2023-04-24T03:00:39;1.15;;;0.93;;
80131;SDS011;69442;51.442;10.564;2023-04-24T03:03:05;1.45;;;1.10;;
80131;SDS011;69442;51.442;10.564;2023-04-24T03:05:31;3.80;;;1.10;;
80131;SDS011;69442;51.442;10.564;2023-04-24T03:07:57;1.45;;;1.00;;
80131;SDS011;69442;51.442;10.564;2023-04-24T03:10:22;1.27;;;1.00;;
80131;SDS011;69442;51.442;10.564;2023-04-24T03:12:48;1.15;;;0.90;;
80131;SDS011;69442;51.442;10.564;2023-04-24T03:15:13;2.30;;;1.08;;
80131;SDS011;69442;51.442;10.564;2023-04-24T03:17:39;1.23;;;0.93;;
80131;SDS011;69442;51.442;10.564;2023-04-24T03:20:04;1.52;;;0.85;;
80131;SDS011;69442;51.442;10.564;2023-04-24T03:22:30;1.83;;;1.00;;
80131;SDS011;69442;51.442;10.564;2023-04-24T03:24:57;1.52;;;0.90;;
80131;SDS011;69442;51.442;10.564;2023-04-24T03:27:23;1.73;;;1.23;;
80131;SDS011;69442;51.442;10.564;2023-04-24T03:29:48;1.83;;;0.80;;
80131;SDS011;69442;51.442;10.564;2023-04-24T03:32:16;2.22;;;1.27;;
80131;SDS011;69442;51.442;10.564;2023-04-24T03:34:41;1.67;;;0.90;;
80131;SDS011;69442;51.442;10.564;2023-04-24T03:37:07;1.50;;;1.08;;
80131;SDS011;69442;51.442;10.564;2023-04-24T03:39:32;1.85;;;1.20;;
80131;SDS011;69442;51.442;10.564;2023-04-24T03:41:57;3.40;;;1.17;;
80131;SDS011;69442;51.442;10.564;2023-04-24T03:44:23;2.13;;;1.30;;
80131;SDS011;69442;51.442;10.564;2023-04-24T03:46:48;0.90;;;0.80;;
80131;SDS011;69442;51.442;10.564;2023-04-24T03:49:13;1.23;;;1.00;;
80131;SDS011;69442;51.442;10.564;2023-04-24T03:51:39;1.27;;;0.93;;
80131;SDS011;69442;51.442;10.564;2023-04-24T03:54:04;1.75;;;1.20;;
80131;SDS011;69442;51.442;10.564;2023-04-24T03:56:30;1.70;;;0.90;;
80131;SDS011;69442;51.442;10.564;2023-04-24T03:58:55;1.83;;;1.30;;
80131;SDS011;69442;51.442;10.564;2023-04-24T04:01:20;4.93;;;1.30;;
80131;SDS011;69442;51.442;10.564;2023-04-24T04:03:46;2.75;;;1.40;;
80131;SDS011;69442;51.442;10.564;2023-04-24T04:06:11;1.00;;;0.93;;
80131;SDS011;69442;51.442;10.564;2023-04-24T04:08:38;1.80;;;0.88;;
80131;SDS011;69442;51.442;10.564;2023-04-24T04:11:03;2.55;;;1.20;;
80131;SDS011;69442;51.442;10.564;2023-04-24T04:13:28;1.77;;;1.20;;
80131;SDS011;69442;51.442;10.564;2023-04-24T04:15:54;1.25;;;1.05;;
80131;SDS011;69442;51.442;10.564;2023-04-24T04:18:19;2.33;;;1.27;;
80131;SDS011;69442;51.442;10.564;2023-04-24T04:20:45;1.85;;;1.13;;
80131;SDS011;69442;51.442;10.564;2023-04-24T04:23:10;2.08;;;1.27;;
80131;SDS011;69442;51.442;10.564;2023-04-24T04:25:35;2.67;;;1.23;;
80131;SDS011;69442;51.442;10.564;2023-04-24T04:28:01;1.23;;;1.02;;
80131;SDS011;69442;51.442;10.564;2023-04-24T04:30:27;1.50;;;1.10;;
80131;SDS011;69442;51.442;10.564;2023-04-24T04:32:54;0.98;;;0.85;;
80131;SDS011;69442;51.442;10.564;2023-04-24T04:35:20;1.58;;;1.30;;
80131;SDS011;69442;51.442;10.564;2023-04-24T04:37:45;1.85;;;0.90;;
80131;SDS011;69442;51.442;10.564;2023-04-24T04:40:10;3.30;;;1.30;;
80131;SDS011;69442;51.442;10.564;2023-04-24T04:42:37;2.28;;;1.27;;
80131;SDS011;69442;51.442;10.564;2023-04-24T04:45:08;1.38;;;1.00;;
80131;SDS011;69442;51.442;10.564;2023-04-24T04:47:35;1.92;;;1.02;;
80131;SDS011;69442;51.442;10.564;2023-04-24T04:50:01;1.92;;;1.13;;
80131;SDS011;69442;51.442;10.564;2023-04-24T04:52:28;2.72;;;1.10;;
80131;SDS011;69442;51.442;10.564;2023-04-24T04:54:54;1.75;;;1.13;;
80131;SDS011;69442;51.442;10.564;2023-04-24T04:57:19;1.55;;;1.02;;
80131;SDS011;69442;51.442;10.564;2023-04-24T04:59:45;3.03;;;1.15;;
80131;SDS011;69442;51.442;10.564;2023-04-24T05:02:11;1.30;;;0.90;;
80131;SDS011;69442;51.442;10.564;2023-04-24T05:04:36;4.25;;;2.13;;
80131;SDS011;69442;51.442;10.564;2023-04-24T05:07:02;2.78;;;1.25;;
80131;SDS011;69442;51.442;10.564;2023-04-24T05:09:28;1.05;;;0.85;;
80131;SDS011;69442;51.442;10.564;2023-04-24T05:11:54;3.17;;;1.05;;
80131;SDS011;69442;51.442;10.564;2023-04-24T05:14:20;1.67;;;1.00;;
80131;SDS011;69442;51.442;10.564;2023-04-24T05:16:46;1.50;;;1.10;;
80131;SDS011;69442;51.442;10.564;2023-04-24T05:19:11;3.85;;;1.20;;
80131;SDS011;69442;51.442;10.564;2023-04-24T05:21:38;1.95;;;1.13;;
80131;SDS011;69442;51.442;10.564;2023-04-24T05:24:04;1.65;;;0.80;;
80131;SDS011;69442;51.442;10.564;2023-04-24T05:26:30;2.53;;;1.10;;
80131;SDS011;69442;51.442;10.564;2023-04-24T05:28:55;1.08;;;0.77;;
80131;SDS011;69442;51.442;10.564;2023-04-24T05:31:21;1.77;;;1.00;;
80131;SDS011;69442;51.442;10.564;2023-04-24T05:33:46;2.35;;;0.82;;
80131;SDS011;69442;51.442;10.564;2023-04-24T05:36:11;1.10;;;1.00;;
80131;SDS011;69442;51.442;10.564;2023-04-24T05:38:37;1.50;;;0.90;;
80131;SDS011;69442;51.442;10.564;2023-04-24T05:41:03;1.45;;;1.15;;
80131;SDS011;69442;51.442;10.564;2023-04-24T05:43:28;1.63;;;0.95;;
80131;SDS011;69442;51.442;10.564;2023-04-24T05:45:53;1.10;;;1.00;;
80131;SDS011;69442;51.442;10.564;2023-04-24T05:48:19;2.03;;;0.93;;
80131;SDS011;69442;51.442;10.564;2023-04-24T05:50:44;1.90;;;1.10;;
80131;SDS011;69442;51.442;10.564;2023-04-24T05:53:10;1.13;;;1.02;;
80131;SDS011;69442;51.442;10.564;2023-04-24T05:55:35;1.23;;;0.80;;
80131;SDS011;69442;51.442;10.564;2023-04-24T05:58:01;1.17;;;0.80;;
80131;SDS011;69442;51.442;10.564;2023-04-24T06:00:26;2.53;;;1.00;;
80131;SDS011;69442;51.442;10.564;2023-04-24T06:02:52;3.00;;;0.90;;
80131;SDS011;69442;51.442;10.564;2023-04-24T06:05:20;1.80;;;0.80;;
80131;SDS011;69442;51.442;10.564;2023-04-24T06:07:46;1.05;;;0.63;;
80131;SDS011;69442;51.442;10.564;2023-04-24T06:10:11;0.65;;;0.50;;
80131;SDS011;69442;51.442;10.564;2023-04-24T06:12:36;1.77;;;0.95;;
80131;SDS011;69442;51.442;10.564;2023-04-24T06:15:03;0.70;;;0.70;;
80131;SDS011;69442;51.442;10.564;2023-04-24T06:17:28;2.60;;;0.80;;
80131;SDS011;69442;51.442;10.564;2023-04-24T06:19:54;1.30;;;1.10;;
80131;SDS011;69442;51.442;10.564;2023-04-24T06:22:19;0.70;;;0.70;;
80131;SDS011;69442;51.442;10.564;2023-04-24T06:24:44;1.65;;;0.60;;
80131;SDS011;69442;51.442;10.564;2023-04-24T06:27:10;1.30;;;0.88;;
80131;SDS011;69442;51.442;10.564;2023-04-24T06:29:36;1.35;;;0.75;;
80131;SDS011;69442;51.442;10.564;2023-04-24T06:32:01;2.00;;;0.90;;
80131;SDS011;69442;51.442;10.564;2023-04-24T06:34:27;1.00;;;0.73;;
80131;SDS011;69442;51.442;10.564;2023-04-24T06:36:53;2.72;;;0.88;;
80131;SDS011;69442;51.442;10.564;2023-04-24T06:39:19;1.48;;;0.80;;
80131;SDS011;69442;51.442;10.564;2023-04-24T06:41:45;1.02;;;0.77;;
80131;SDS011;69442;51.442;10.564;2023-04-24T06:44:10;0.50;;;0.50;;
80131;SDS011;69442;51.442;10.564;2023-04-24T06:46:36;1.95;;;0.75;;
80131;SDS011;69442;51.442;10.564;2023-04-24T06:49:01;0.93;;;0.70;;
80131;SDS011;69442;51.442;10.564;2023-04-24T06:51:26;1.58;;;0.82;;
80131;SDS011;69442;51.442;10.564;2023-04-24T06:53:55;2.28;;;0.90;;
80131;SDS011;69442;51.442;10.564;2023-04-24T06:56:23;0.90;;;0.63;;
80131;SDS011;69442;51.442;10.564;2023-04-24T06:58:49;0.70;;;0.60;;
80131;SDS011;69442;51.442;10.564;2023-04-24T07:01:14;1.05;;;0.93;;
80131;SDS011;69442;51.442;10.564;2023-04-24T07:03:40;1.10;;;0.80;;
80131;SDS011;69442;51.442;10.564;2023-04-24T07:06:05;1.08;;;0.80;;
80131;SDS011;69442;51.442;10.564;2023-04-24T07:08:31;0.95;;;0.82;;
80131;SDS011;69442;51.442;10.564;2023-04-24T07:10:58;1.73;;;0.80;;
80131;SDS011;69442;51.442;10.564;2023-04-24T07:13:23;1.08;;;0.75;;
80131;SDS011;69442;51.442;10.564;2023-04-24T07:15:49;1.65;;;0.90;;
80131;SDS011;69442;51.442;10.564;2023-04-24T07:18:16;1.30;;;0.90;;
80131;SDS011;69442;51.442;10.564;2023-04-24T07:20:42;1.23;;;0.90;;
80131;SDS011;69442;51.442;10.564;2023-04-24T07:23:07;1.00;;;0.90;;
80131;SDS011;69442;51.442;10.564;2023-04-24T07:25:32;1.20;;;0.82;;
80131;SDS011;69442;51.442;10.564;2023-04-24T07:27:58;1.20;;;0.80;;
80131;SDS011;69442;51.442;10.564;2023-04-24T07:30:24;0.95;;;0.88;;
80131;SDS011;69442;51.442;10.564;2023-04-24T07:32:49;0.98;;;0.80;;
80131;SDS011;69442;51.442;10.564;2023-04-24T07:35:15;1.20;;;0.80;;
80131;SDS011;69442;51.442;10.564;2023-04-24T07:37:40;1.17;;;0.90;;
80131;SDS011;69442;51.442;10.564;2023-04-24T07:40:10;1.25;;;0.80;;
80131;SDS011;69442;51.442;10.564;2023-04-24T07:42:39;0.70;;;0.70;;
80131;SDS011;69442;51.442;10.564;2023-04-24T07:45:04;0.95;;;0.77;;
80131;SDS011;69442;51.442;10.564;2023-04-24T07:47:31;1.55;;;1.08;;
80131;SDS011;69442;51.442;10.564;2023-04-24T07:49:57;1.65;;;0.85;;
80131;SDS011;69442;51.442;10.564;2023-04-24T07:52:23;0.82;;;0.80;;
80131;SDS011;69442;51.442;10.564;2023-04-24T07:54:48;1.77;;;0.93;;
80131;SDS011;69442;51.442;10.564;2023-04-24T07:57:17;1.25;;;0.90;;
80131;SDS011;69442;51.442;10.564;2023-04-24T07:59:43;7.20;;;1.55;;
80131;SDS011;69442;51.442;10.564;2023-04-24T08:02:09;6.65;;;2.15;;
80131;SDS011;69442;51.442;10.564;2023-04-24T08:04:34;1.73;;;1.23;;
80131;SDS011;69442;51.442;10.564;2023-04-24T08:07:00;1.60;;;1.10;;
80131;SDS011;69442;51.442;10.564;2023-04-24T08:09:25;7.13;;;1.23;;
80131;SDS011;69442;51.442;10.564;2023-04-24T08:11:50;1.20;;;1.10;;
80131;SDS011;69442;51.442;10.564;2023-04-24T08:14:16;2.53;;;1.40;;
80131;SDS011;69442;51.442;10.564;2023-04-24T08:16:41;1.95;;;1.13;;
80131;SDS011;69442;51.442;10.564;2023-04-24T08:19:06;1.95;;;1.27;;
80131;SDS011;69442;51.442;10.564;2023-04-24T08:21:32;2.17;;;1.30;;
80131;SDS011;69442;51.442;10.564;2023-04-24T08:23:57;1.60;;;1.08;;
80131;SDS011;69442;51.442;10.564;2023-04-24T08:26:23;1.15;;;0.90;;
80131;SDS011;69442;51.442;10.564;2023-04-24T08:28:48;4.25;;;1.40;;
80131;SDS011;69442;51.442;10.564;2023-04-24T08:31:14;2.17;;;1.98;;
80131;SDS011;69442;51.442;10.564;2023-04-24T08:33:39;0.85;;;0.80;;
80131;SDS011;69442;51.442;10.564;2023-04-24T08:36:06;1.73;;;1.25;;
80131;SDS011;69442;51.442;10.564;2023-04-24T08:38:33;2.10;;;1.08;;
80131;SDS011;69442;51.442;10.564;2023-04-24T08:40:59;5.63;;;1.40;;
80131;SDS011;69442;51.442;10.564;2023-04-24T08:43:25;1.20;;;1.08;;
80131;SDS011;69442;51.442;10.564;2023-04-24T08:45:51;1.23;;;1.10;;
80131;SDS011;69442;51.442;10.564;2023-04-24T08:48:17;3.13;;;1.10;;
80131;SDS011;69442;51.442;10.564;2023-04-24T08:50:43;3.45;;;1.02;;
80131;SDS011;69442;51.442;10.564;2023-04-24T08:53:10;2.10;;;1.15;;
80131;SDS011;69442;51.442;10.564;2023-04-24T08:55:36;2.13;;;1.23;;
80131;SDS011;69442;51.442;10.564;2023-04-24T08:58:02;3.30;;;1.10;;
80131;SDS011;69442;51.442;10.564;2023-04-24T09:00:28;1.83;;;1.17;;
80131;SDS011;69442;51.442;10.564;2023-04-24T09:02:54;1.60;;;1.10;;
80131;SDS011;69442;51.442;10.564;2023-04-24T09:05:21;1.98;;;1.30;;
80131;SDS011;69442;51.442;10.564;2023-04-24T09:07:53;2.08;;;1.20;;
80131;SDS011;69442;51.442;10.564;2023-04-24T09:10:21;2.15;;;1.27;;
80131;SDS011;69442;51.442;10.564;2023-04-24T09:12:47;1.35;;;1.17;;
80131;SDS011;69442;51.442;10.564;2023-04-24T09:15:14;1.88;;;0.95;;
80131;SDS011;69442;51.442;10.564;2023-04-24T09:17:40;2.35;;;1.33;;
80131;SDS011;69442;51.442;10.564;2023-04-24T09:20:05;2.75;;;1.80;;
80131;SDS011;69442;51.442;10.564;2023-04-24T09:22:31;2.97;;;1.20;;
80131;SDS011;69442;51.442;10.564;2023-04-24T09:25:03;1.60;;;1.40;;
80131;SDS011;69442;51.442;10.564;2023-04-24T09:27:31;2.38;;;1.30;;
80131;SDS011;69442;51.442;10.564;2023-04-24T09:30:00;1.92;;;1.45;;
80131;SDS011;69442;51.442;10.564;2023-04-24T09:32:26;2.00;;;1.58;;
80131;SDS011;69442;51.442;10.564;2023-04-24T09:35:06;2.85;;;1.52;;
80131;SDS011;69442;51.442;10.564;2023-04-24T09:37:39;2.25;;;1.50;;
80131;SDS011;69442;51.442;10.564;2023-04-24T09:42:55;2.97;;;1.30;;
80131;SDS011;69442;51.442;10.564;2023-04-24T09:45:27;3.00;;;1.70;;
80131;SDS011;69442;51.442;10.564;2023-04-24T09:48:00;3.65;;;1.50;;
80131;SDS011;69442;51.442;10.564;2023-04-24T09:50:25;2.13;;;1.55;;
80131;SDS011;69442;51.442;10.564;2023-04-24T09:52:57;3.47;;;1.60;;
80131;SDS011;69442;51.442;10.564;2023-04-24T09:55:24;6.05;;;2.20;;
80131;SDS011;69442;51.442;10.564;2023-04-24T09:57:51;2.65;;;1.75;;
80131;SDS011;69442;51.442;10.564;2023-04-24T10:00:23;10.80;;;1.73;;
80131;SDS011;69442;51.442;10.564;2023-04-24T10:02:56;2.67;;;1.55;;
80131;SDS011;69442;51.442;10.564;2023-04-24T10:08:13;2.63;;;1.50;;
80131;SDS011;69442;51.442;10.564;2023-04-24T10:10:39;2.22;;;1.50;;
80131;SDS011;69442;51.442;10.564;2023-04-24T10:13:08;1.58;;;1.40;;
80131;SDS011;69442;51.442;10.564;2023-04-24T10:15:35;2.40;;;1.70;;
80131;SDS011;69442;51.442;10.564;2023-04-24T10:18:02;4.30;;;1.70;;
80131;SDS011;69442;51.442;10.564;2023-04-24T10:20:31;2.47;;;1.55;;
80131;SDS011;69442;51.442;10.564;2023-04-24T10:22:57;3.22;;;1.50;;
80131;SDS011;69442;51.442;10.564;2023-04-24T10:25:27;2.03;;;1.52;;
80131;SDS011;69442;51.442;10.564;2023-04-24T10:27:53;1.90;;;0.70;;
80131;SDS011;69442;51.442;10.564;2023-04-24T10:30:24;4.45;;;1.45;;
80131;SDS011;69442;51.442;10.564;2023-04-24T10:32:51;39.58;;;4.85;;
80131;SDS011;69442;51.442;10.564;2023-04-24T10:35:17;4.93;;;1.90;;
80131;SDS011;69442;51.442;10.564;2023-04-24T10:38:03;3.63;;;1.58;;
80131;SDS011;69442;51.442;10.564;2023-04-24T10:40:34;1.98;;;1.42;;
80131;SDS011;69442;51.442;10.564;2023-04-24T10:43:03;2.25;;;1.60;;
80131;SDS011;69442;51.442;10.564;2023-04-24T10:45:32;2.42;;;1.52;;
80131;SDS011;69442;51.442;10.564;2023-04-24T10:47:59;2.08;;;1.70;;
80131;SDS011;69442;51.442;10.564;2023-04-24T10:50:29;2.80;;;1.85;;
80131;SDS011;69442;51.442;10.564;2023-04-24T10:53:08;4.57;;;1.80;;
80131;SDS011;69442;51.442;10.564;2023-04-24T10:55:44;3.35;;;1.60;;
80131;SDS011;69442;51.442;10.564;2023-04-24T10:58:14;1.13;;;0.98;;
80131;SDS011;69442;51.442;10.564;2023-04-24T11:00:41;2.30;;;1.60;;
80131;SDS011;69442;51.442;10.564;2023-04-24T11:03:30;2.50;;;1.48;;
80131;SDS011;69442;51.442;10.564;2023-04-24T11:06:04;2.20;;;1.42;;
80131;SDS011;69442;51.442;10.564;2023-04-24T11:08:44;3.70;;;2.00;;
80131;SDS011;69442;51.442;10.564;2023-04-24T11:11:11;4.07;;;2.15;;
80131;SDS011;69442;51.442;10.564;2023-04-24T11:19:04;2.20;;;1.42;;
80131;SDS011;69442;51.442;10.564;2023-04-24T11:21:31;1.63;;;1.27;;
80131;SDS011;69442;51.442;10.564;2023-04-24T11:27:05;1.35;;;1.10;;
80131;SDS011;69442;51.442;10.564;2023-04-24T11:29:42;4.22;;;1.30;;
80131;SDS011;69442;51.442;10.564;2023-04-24T11:32:25;1.73;;;0.95;;
80131;SDS011;69442;51.442;10.564;2023-04-24T11:34:58;1.35;;;0.95;;
80131;SDS011;69442;51.442;10.564;2023-04-24T11:37:26;2.30;;;1.08;;
80131;SDS011;69442;51.442;10.564;2023-04-24T11:39:56;4.43;;;1.02;;
80131;SDS011;69442;51.442;10.564;2023-04-24T11:42:23;1.35;;;1.02;;
80131;SDS011;69442;51.442;10.564;2023-04-24T11:44:49;1.30;;;1.00;;
80131;SDS011;69442;51.442;10.564;2023-04-24T11:47:16;1.60;;;1.05;;
80131;SDS011;69442;51.442;10.564;2023-04-24T11:49:42;1.65;;;1.10;;
80131;SDS011;69442;51.442;10.564;2023-04-24T11:52:07;1.65;;;1.17;;
80131;SDS011;69442;51.442;10.564;2023-04-24T11:54:33;3.78;;;1.20;;
80131;SDS011;69442;51.442;10.564;2023-04-24T11:56:58;1.63;;;1.00;;
80131;SDS011;69442;51.442;10.564;2023-04-24T11:59:25;1.13;;;1.00;;
80131;SDS011;69442;51.442;10.564;2023-04-24T12:01:51;1.48;;;0.95;;
80131;SDS011;69442;51.442;10.564;2023-04-24T12:04:17;1.45;;;1.25;;
80131;SDS011;69442;51.442;10.564;2023-04-24T12:06:58;2.53;;;0.90;;
80131;SDS011;69442;51.442;10.564;2023-04-24T12:09:25;1.25;;;0.80;;
80131;SDS011;69442;51.442;10.564;2023-04-24T12:11:54;0.85;;;0.80;;
80131;SDS011;69442;51.442;10.564;2023-04-24T12:14:23;1.17;;;0.88;;
80131;SDS011;69442;51.442;10.564;2023-04-24T12:16:49;1.13;;;0.80;;
80131;SDS011;69442;51.442;10.564;2023-04-24T12:19:20;1.20;;;0.90;;
80131;SDS011;69442;51.442;10.564;2023-04-24T12:21:58;1.00;;;0.80;;
80131;SDS011;69442;51.442;10.564;2023-04-24T12:24:24;13.88;;;2.80;;
80131;SDS011;69442;51.442;10.564;2023-04-24T12:26:50;2.42;;;1.10;;
80131;SDS011;69442;51.442;10.564;2023-04-24T12:29:22;1.35;;;1.02;;
80131;SDS011;69442;51.442;10.564;2023-04-24T12:31:48;0.75;;;0.75;;
80131;SDS011;69442;51.442;10.564;2023-04-24T12:34:20;1.25;;;1.13;;
80131;SDS011;69442;51.442;10.564;2023-04-24T12:36:47;1.63;;;1.10;;
80131;SDS011;69442;51.442;10.564;2023-04-24T12:39:16;4.05;;;1.23;;
80131;SDS011;69442;51.442;10.564;2023-04-24T12:41:56;1.02;;;0.93;;
80131;SDS011;69442;51.442;10.564;2023-04-24T12:44:29;1.55;;;0.90;;
80131;SDS011;69442;51.442;10.564;2023-04-24T12:46:59;2.28;;;0.80;;
80131;SDS011;69442;51.442;10.564;2023-04-24T12:49:25;0.85;;;0.60;;
80131;SDS011;69442;51.442;10.564;2023-04-24T12:51:51;0.73;;;0.55;;
80131;SDS011;69442;51.442;10.564;2023-04-24T12:54:16;2.13;;;0.80;;
80131;SDS011;69442;51.442;10.564;2023-04-24T12:56:41;1.98;;;0.73;;
80131;SDS011;69442;51.442;10.564;2023-04-24T12:59:07;0.75;;;0.60;;
80131;SDS011;69442;51.442;10.564;2023-04-24T13:01:32;0.70;;;0.60;;
80131;SDS011;69442;51.442;10.564;2023-04-24T13:03:58;0.60;;;0.57;;
80131;SDS011;69442;51.442;10.564;2023-04-24T13:06:23;0.70;;;0.63;;
80131;SDS011;69442;51.442;10.564;2023-04-24T13:08:48;1.48;;;0.70;;
80131;SDS011;69442;51.442;10.564;2023-04-24T13:11:14;1.58;;;0.60;;
80131;SDS011;69442;51.442;10.564;2023-04-24T13:13:39;1.60;;;0.50;;
80131;SDS011;69442;51.442;10.564;2023-04-24T13:16:05;0.65;;;0.45;;
80131;SDS011;69442;51.442;10.564;2023-04-24T13:18:30;0.35;;;0.35;;
80131;SDS011;69442;51.442;10.564;2023-04-24T13:20:56;0.57;;;0.45;;
80131;SDS011;69442;51.442;10.564;2023-04-24T13:23:21;0.38;;;0.38;;
80131;SDS011;69442;51.442;10.564;2023-04-24T13:25:48;0.30;;;0.30;;
80131;SDS011;69442;51.442;10.564;2023-04-24T13:28:14;0.47;;;0.40;;
80131;SDS011;69442;51.442;10.564;2023-04-24T13:30:39;6.75;;;0.90;;
80131;SDS011;69442;51.442;10.564;2023-04-24T13:33:05;0.25;;;0.25;;
80131;SDS011;69442;51.442;10.564;2023-04-24T13:35:30;0.38;;;0.30;;
80131;SDS011;69442;51.442;10.564;2023-04-24T13:37:56;0.43;;;0.22;;
80131;SDS011;69442;51.442;10.564;2023-04-24T13:40:22;0.40;;;0.40;;
80131;SDS011;69442;51.442;10.564;2023-04-24T13:42:48;0.30;;;0.30;;
80131;SDS011;69442;51.442;10.564;2023-04-24T13:45:13;0.55;;;0.40;;
80131;SDS011;69442;51.442;10.564;2023-04-24T13:47:39;0.30;;;0.30;;
80131;SDS011;69442;51.442;10.564;2023-04-24T13:50:06;0.38;;;0.38;;
80131;SDS011;69442;51.442;10.564;2023-04-24T13:52:33;0.30;;;0.30;;
80131;SDS011;69442;51.442;10.564;2023-04-24T13:54:58;0.30;;;0.30;;
80131;SDS011;69442;51.442;10.564;2023-04-24T13:57:24;0.65;;;0.47;;
80131;SDS011;69442;51.442;10.564;2023-04-24T13:59:49;0.38;;;0.38;;
80131;SDS011;69442;51.442;10.564;2023-04-24T14:02:15;0.47;;;0.47;;
80131;SDS011;69442;51.442;10.564;2023-04-24T14:04:40;0.30;;;0.30;;
80131;SDS011;69442;51.442;10.564;2023-04-24T14:07:06;6.13;;;0.60;;
80131;SDS011;69442;51.442;10.564;2023-04-24T14:09:32;0.57;;;0.40;;
80131;SDS011;69442;51.442;10.564;2023-04-24T14:11:57;0.30;;;0.30;;
80131;SDS011;69442;51.442;10.564;2023-04-24T14:14:23;0.20;;;0.20;;
80131;SDS011;69442;51.442;10.564;2023-04-24T14:16:48;0.20;;;0.20;;
80131;SDS011;69442;51.442;10.564;2023-04-24T14:19:13;0.15;;;0.15;;
80131;SDS011;69442;51.442;10.564;2023-04-24T14:21:39;0.20;;;0.20;;
80131;SDS011;69442;51.442;10.564;2023-04-24T14:24:05;0.30;;;0.30;;
80131;SDS011;69442;51.442;10.564;2023-04-24T14:26:30;0.40;;;0.25;;
80131;SDS011;69442;51.442;10.564;2023-04-24T14:28:55;0.88;;;0.40;;
80131;SDS011;69442;51.442;10.564;2023-04-24T14:31:23;0.30;;;0.30;;
80131;SDS011;69442;51.442;10.564;2023-04-24T14:33:49;1.05;;;0.40;;
80131;SDS011;69442;51.442;10.564;2023-04-24T14:36:14;1.50;;;0.45;;
80131;SDS011;69442;51.442;10.564;2023-04-24T14:38:39;0.30;;;0.30;;
80131;SDS011;69442;51.442;10.564;2023-04-24T14:41:05;0.38;;;0.38;;
80131;SDS011;69442;51.442;10.564;2023-04-24T14:43:34;0.30;;;0.30;;